BJN099 ZULS-ZUUU
Flight info
| Callsign | BJN099 |
|---|---|
| Flight time | 1h 53m |
| Altitude | 39100 |
| Route | LXA W500 DM W9 LADUP LADUP2E |
| Aircraft | B737/M-SDE2E3FGHIRWXY/LB1 |
Departure
| Time | 2026-04-19 23:38 |
|---|---|
| Airport | Lhasa Gonggar International Airport (ZULS) |
Arrival
| Time | 2026-04-20 01:31 |
|---|---|
| Airport | Chengdu Shuangliu International Airport (ZUUU) |
| Time | Latitude | Longitude | Altitude | Speed | Heading |
|---|---|---|---|---|---|
| 2026-04-19 23:05 | 29.29427 | 90.89984 | 11557 ft | 0 kts | 180° |
| 2026-04-19 23:23 | 29.29428 | 90.89984 | 11566 ft | 1 kts | 180° |
| 2026-04-19 23:23 | 29.29461 | 90.89984 | 11561 ft | 4 kts | 180° |
| 2026-04-19 23:23 | 29.29479 | 90.89984 | 11553 ft | 4 kts | 180° |
| 2026-04-19 23:23 | 29.29509 | 90.89988 | 11553 ft | 4 kts | 214° |
| 2026-04-19 23:24 | 29.29521 | 90.90001 | 11567 ft | 4 kts | 248° |
| 2026-04-19 23:24 | 29.29526 | 90.90030 | 11559 ft | 4 kts | 268° |
| 2026-04-19 23:24 | 29.29526 | 90.90040 | 11563 ft | 0 kts | 269° |
| 2026-04-19 23:27 | 29.29534 | 90.90017 | 11567 ft | 5 kts | 317° |
| 2026-04-19 23:27 | 29.29571 | 90.90008 | 11563 ft | 6 kts | 359° |
| 2026-04-19 23:28 | 29.29619 | 90.90033 | 11562 ft | 9 kts | 57° |
| 2026-04-19 23:28 | 29.29625 | 90.90105 | 11556 ft | 9 kts | 89° |
| 2026-04-19 23:28 | 29.29625 | 90.90176 | 11567 ft | 9 kts | 89° |
| 2026-04-19 23:28 | 29.29627 | 90.90244 | 11567 ft | 9 kts | 88° |
| 2026-04-19 23:29 | 29.29629 | 90.90311 | 11570 ft | 8 kts | 88° |
| 2026-04-19 23:29 | 29.29631 | 90.90376 | 11570 ft | 8 kts | 88° |
| 2026-04-19 23:29 | 29.29632 | 90.90439 | 11570 ft | 8 kts | 93° |
| 2026-04-19 23:29 | 29.29631 | 90.90500 | 11570 ft | 8 kts | 88° |
| 2026-04-19 23:30 | 29.29632 | 90.90559 | 11569 ft | 7 kts | 88° |
| 2026-04-19 23:30 | 29.29634 | 90.90615 | 11568 ft | 7 kts | 88° |
| 2026-04-19 23:30 | 29.29635 | 90.90670 | 11568 ft | 7 kts | 88° |
| 2026-04-19 23:30 | 29.29635 | 90.90725 | 11567 ft | 7 kts | 91° |
| 2026-04-19 23:31 | 29.29635 | 90.90778 | 11568 ft | 7 kts | 89° |
| 2026-04-19 23:31 | 29.29635 | 90.90830 | 11554 ft | 7 kts | 88° |
| 2026-04-19 23:31 | 29.29637 | 90.90882 | 11563 ft | 7 kts | 88° |
| 2026-04-19 23:31 | 29.29637 | 90.90941 | 11568 ft | 9 kts | 89° |
| 2026-04-19 23:32 | 29.29640 | 90.91030 | 11570 ft | 13 kts | 82° |
| 2026-04-19 23:32 | 29.29644 | 90.91131 | 11570 ft | 13 kts | 92° |
| 2026-04-19 23:32 | 29.29643 | 90.91230 | 11570 ft | 12 kts | 89° |
| 2026-04-19 23:32 | 29.29644 | 90.91327 | 11565 ft | 12 kts | 90° |
| 2026-04-19 23:33 | 29.29645 | 90.91421 | 11562 ft | 12 kts | 89° |
| 2026-04-19 23:33 | 29.29646 | 90.91513 | 11572 ft | 11 kts | 89° |
| 2026-04-19 23:33 | 29.29647 | 90.91608 | 11561 ft | 13 kts | 89° |
| 2026-04-19 23:33 | 29.29649 | 90.91717 | 11566 ft | 16 kts | 88° |
| 2026-04-19 23:34 | 29.29652 | 90.91913 | 11554 ft | 32 kts | 88° |
| 2026-04-19 23:34 | 29.29657 | 90.92165 | 11565 ft | 30 kts | 89° |
| 2026-04-19 23:34 | 29.29660 | 90.92398 | 11564 ft | 28 kts | 89° |
| 2026-04-19 23:34 | 29.29663 | 90.92617 | 11558 ft | 27 kts | 89° |
| 2026-04-19 23:35 | 29.29666 | 90.92822 | 11561 ft | 25 kts | 89° |
| 2026-04-19 23:35 | 29.29670 | 90.93011 | 11562 ft | 23 kts | 89° |
| 2026-04-19 23:35 | 29.29671 | 90.93176 | 11562 ft | 13 kts | 89° |
| 2026-04-19 23:35 | 29.29697 | 90.93264 | 11562 ft | 12 kts | 25° |
| 2026-04-19 23:36 | 29.29781 | 90.93267 | 11556 ft | 12 kts | 358° |
| 2026-04-19 23:36 | 29.29836 | 90.93252 | 11554 ft | 5 kts | 304° |
| 2026-04-19 23:36 | 29.29839 | 90.93222 | 11556 ft | 0 kts | 268° |
| 2026-04-19 23:37 | 29.29838 | 90.93197 | 11564 ft | 20 kts | 268° |
| 2026-04-19 23:37 | 29.29831 | 90.92779 | 11563 ft | 84 kts | 269° |
| 2026-04-19 23:38 | 29.29818 | 90.91885 | 11567 ft | 139 kts | 269° |
| 2026-04-19 23:38 | 29.29796 | 90.90583 | 11565 ft | 186 kts | 268° |
| 2026-04-19 23:38 | 29.29772 | 90.89024 | 11989 ft | 199 kts | 268° |
| 2026-04-19 23:38 | 29.29741 | 90.87427 | 12833 ft | 197 kts | 269° |
| 2026-04-19 23:39 | 29.29720 | 90.85867 | 13496 ft | 202 kts | 269° |
| 2026-04-19 23:39 | 29.29603 | 90.84157 | 13659 ft | 229 kts | 256° |
| 2026-04-19 23:39 | 29.28988 | 90.82387 | 13964 ft | 248 kts | 243° |
| 2026-04-19 23:39 | 29.28528 | 90.80476 | 14646 ft | 253 kts | 273° |
| 2026-04-19 23:40 | 29.28966 | 90.78567 | 15496 ft | 253 kts | 297° |
| 2026-04-19 23:40 | 29.30025 | 90.76958 | 16317 ft | 256 kts | 316° |
| 2026-04-19 23:40 | 29.31506 | 90.75811 | 17146 ft | 260 kts | 336° |
| 2026-04-19 23:40 | 29.33296 | 90.75449 | 17945 ft | 267 kts | 2° |
| 2026-04-19 23:41 | 29.35173 | 90.75499 | 18639 ft | 272 kts | 359° |
| 2026-04-19 23:41 | 29.37000 | 90.76076 | 19290 ft | 281 kts | 33° |
| 2026-04-19 23:41 | 29.38294 | 90.77758 | 19948 ft | 288 kts | 66° |
| 2026-04-19 23:41 | 29.38619 | 90.80028 | 20535 ft | 295 kts | 99° |
| 2026-04-19 23:42 | 29.37928 | 90.82228 | 20681 ft | 296 kts | 126° |
| 2026-04-19 23:42 | 29.36767 | 90.84215 | 20763 ft | 311 kts | 113° |
| 2026-04-19 23:42 | 29.36428 | 90.86736 | 20936 ft | 336 kts | 83° |
| 2026-04-19 23:42 | 29.37157 | 90.89358 | 21124 ft | 358 kts | 60° |
| 2026-04-19 23:43 | 29.38517 | 90.91811 | 21566 ft | 371 kts | 55° |
| 2026-04-19 23:43 | 29.40132 | 90.94137 | 22262 ft | 374 kts | 41° |
| 2026-04-19 23:43 | 29.42218 | 90.95894 | 23059 ft | 373 kts | 24° |
| 2026-04-19 23:43 | 29.44633 | 90.96956 | 23760 ft | 371 kts | 8° |
| 2026-04-19 23:44 | 29.47183 | 90.97282 | 24381 ft | 369 kts | 355° |
| 2026-04-19 23:44 | 29.49768 | 90.97315 | 25057 ft | 375 kts | 360° |
| 2026-04-19 23:44 | 29.52378 | 90.97708 | 25688 ft | 383 kts | 8° |
| 2026-04-19 23:44 | 29.54968 | 90.98519 | 26353 ft | 389 kts | 15° |
| 2026-04-19 23:45 | 29.57489 | 90.99711 | 26990 ft | 395 kts | 24° |
| 2026-04-19 23:45 | 29.59826 | 91.01358 | 27588 ft | 404 kts | 36° |
| 2026-04-19 23:45 | 29.61898 | 91.03568 | 28177 ft | 411 kts | 47° |
| 2026-04-19 23:45 | 29.63586 | 91.06244 | 28780 ft | 417 kts | 59° |
| 2026-04-19 23:46 | 29.64806 | 91.09282 | 29350 ft | 422 kts | 71° |
| 2026-04-19 23:46 | 29.65490 | 91.12567 | 29908 ft | 425 kts | 84° |
| 2026-04-19 23:46 | 29.65617 | 91.15970 | 30379 ft | 427 kts | 95° |
| 2026-04-19 23:46 | 29.65459 | 91.19427 | 30499 ft | 441 kts | 93° |
| 2026-04-19 23:47 | 29.65513 | 91.23016 | 30586 ft | 456 kts | 86° |
| 2026-04-19 23:47 | 29.65910 | 91.26689 | 30663 ft | 469 kts | 80° |
| 2026-04-19 23:47 | 29.66641 | 91.30395 | 30736 ft | 481 kts | 74° |
| 2026-04-19 23:47 | 29.67723 | 91.34072 | 30889 ft | 490 kts | 69° |
| 2026-04-19 23:48 | 29.68929 | 91.37750 | 31235 ft | 493 kts | 69° |
| 2026-04-19 23:48 | 29.70125 | 91.41446 | 31617 ft | 494 kts | 70° |
| 2026-04-19 23:48 | 29.71304 | 91.45173 | 31967 ft | 497 kts | 70° |
| 2026-04-19 23:48 | 29.72473 | 91.48923 | 32279 ft | 500 kts | 70° |
| 2026-04-19 23:49 | 29.73537 | 91.52740 | 32590 ft | 503 kts | 77° |
| 2026-04-19 23:49 | 29.74015 | 91.56725 | 32916 ft | 504 kts | 89° |
| 2026-04-19 23:49 | 29.73871 | 91.60738 | 33327 ft | 501 kts | 99° |
| 2026-04-19 23:49 | 29.73205 | 91.64653 | 33749 ft | 497 kts | 109° |
| 2026-04-19 23:50 | 29.71953 | 91.68341 | 34053 ft | 493 kts | 121° |
| 2026-04-19 23:50 | 29.70132 | 91.71659 | 34333 ft | 488 kts | 133° |
| 2026-04-19 23:50 | 29.67840 | 91.74491 | 34519 ft | 482 kts | 144° |
| 2026-04-19 23:50 | 29.65235 | 91.76892 | 34736 ft | 478 kts | 152° |
| 2026-04-19 23:51 | 29.62454 | 91.78984 | 35026 ft | 478 kts | 153° |
| 2026-04-19 23:51 | 29.59689 | 91.81108 | 35362 ft | 478 kts | 153° |
| 2026-04-19 23:51 | 29.56932 | 91.83249 | 35597 ft | 480 kts | 152° |
| 2026-04-19 23:51 | 29.54158 | 91.85400 | 35759 ft | 483 kts | 153° |
| 2026-04-19 23:52 | 29.51421 | 91.87660 | 35896 ft | 484 kts | 154° |
| 2026-04-19 23:52 | 29.48519 | 91.89547 | 36135 ft | 482 kts | 157° |
| 2026-04-19 23:52 | 29.45695 | 91.91703 | 36417 ft | 490 kts | 152° |
| 2026-04-19 23:52 | 29.42953 | 91.94027 | 36716 ft | 490 kts | 152° |
| 2026-04-19 23:53 | 29.40228 | 91.96277 | 36936 ft | 487 kts | 152° |
| 2026-04-19 23:53 | 29.37491 | 91.98536 | 37146 ft | 485 kts | 153° |
| 2026-04-19 23:53 | 29.31863 | 92.02822 | 37278 ft | 490 kts | 153° |
| 2026-04-19 23:54 | 29.29236 | 92.05388 | 37324 ft | 508 kts | 136° |
| 2026-04-19 23:54 | 29.27182 | 92.08733 | 37514 ft | 519 kts | 125° |
| 2026-04-19 23:54 | 29.25605 | 92.12485 | 37749 ft | 527 kts | 115° |
| 2026-04-19 23:54 | 29.24577 | 92.16542 | 37860 ft | 536 kts | 103° |
| 2026-04-19 23:55 | 29.24180 | 92.20794 | 38118 ft | 539 kts | 91° |
| 2026-04-19 23:55 | 29.24143 | 92.25086 | 38350 ft | 539 kts | 91° |
| 2026-04-19 23:55 | 29.24093 | 92.29377 | 38526 ft | 539 kts | 91° |
| 2026-04-19 23:55 | 29.24023 | 92.33669 | 38833 ft | 538 kts | 92° |
| 2026-04-19 23:56 | 29.23927 | 92.37924 | 39153 ft | 532 kts | 93° |
| 2026-04-19 23:56 | 29.23812 | 92.42122 | 39164 ft | 526 kts | 93° |
| 2026-04-19 23:56 | 29.23566 | 92.50476 | 39149 ft | 524 kts | 93° |
| 2026-04-19 23:57 | 29.23840 | 92.58853 | 39121 ft | 529 kts | 71° |
| 2026-04-19 23:57 | 29.25143 | 92.62738 | 39203 ft | 520 kts | 56° |
| 2026-04-19 23:57 | 29.26927 | 92.66351 | 39222 ft | 522 kts | 54° |
| 2026-04-19 23:58 | 29.30687 | 92.73549 | 39185 ft | 529 kts | 54° |
| 2026-04-19 23:58 | 29.34381 | 92.80816 | 39176 ft | 525 kts | 54° |
| 2026-04-19 23:59 | 29.37929 | 92.87994 | 39218 ft | 521 kts | 56° |
| 2026-04-19 23:59 | 29.41498 | 92.95220 | 39230 ft | 523 kts | 55° |
| 2026-04-20 00:00 | 29.45101 | 93.02546 | 39248 ft | 530 kts | 56° |
| 2026-04-20 00:00 | 29.48749 | 93.09951 | 39215 ft | 537 kts | 55° |
| 2026-04-20 00:01 | 29.52386 | 93.17367 | 39233 ft | 524 kts | 55° |
| 2026-04-20 00:02 | 29.57674 | 93.28217 | 39199 ft | 518 kts | 56° |
| 2026-04-20 00:02 | 29.61194 | 93.35447 | 39208 ft | 518 kts | 56° |
| 2026-04-20 00:03 | 29.64736 | 93.42689 | 39230 ft | 521 kts | 54° |
| 2026-04-20 00:03 | 29.68361 | 93.49964 | 39249 ft | 530 kts | 56° |
| 2026-04-20 00:04 | 29.71912 | 93.57410 | 39147 ft | 523 kts | 56° |
| 2026-04-20 00:04 | 29.75395 | 93.64678 | 39146 ft | 518 kts | 56° |
| 2026-04-20 00:05 | 29.78926 | 93.71949 | 39152 ft | 524 kts | 56° |
| 2026-04-20 00:05 | 29.82455 | 93.79242 | 39218 ft | 518 kts | 56° |
| 2026-04-20 00:06 | 29.85951 | 93.86504 | 39209 ft | 518 kts | 56° |
| 2026-04-20 00:06 | 29.89332 | 93.93875 | 39189 ft | 523 kts | 63° |
| 2026-04-20 00:07 | 29.91368 | 94.01985 | 39203 ft | 529 kts | 76° |
| 2026-04-20 00:07 | 29.92888 | 94.10253 | 39203 ft | 525 kts | 76° |
| 2026-04-20 00:08 | 29.94514 | 94.18451 | 39158 ft | 528 kts | 75° |
| 2026-04-20 00:08 | 29.96010 | 94.26729 | 39176 ft | 533 kts | 76° |
| 2026-04-20 00:09 | 29.97614 | 94.34974 | 39186 ft | 524 kts | 75° |
| 2026-04-20 00:09 | 29.99238 | 94.43171 | 39175 ft | 524 kts | 75° |
| 2026-04-20 00:10 | 30.00834 | 94.51355 | 39196 ft | 523 kts | 75° |
| 2026-04-20 00:10 | 30.02425 | 94.59551 | 39168 ft | 524 kts | 75° |
| 2026-04-20 00:11 | 30.04012 | 94.67753 | 39212 ft | 524 kts | 76° |
| 2026-04-20 00:11 | 30.05325 | 94.74595 | 39160 ft | 525 kts | 76° |
| 2026-04-20 00:12 | 30.06900 | 94.82833 | 39162 ft | 526 kts | 76° |
| 2026-04-20 00:12 | 30.08482 | 94.91092 | 39147 ft | 528 kts | 75° |
| 2026-04-20 00:13 | 30.10058 | 94.99361 | 39172 ft | 527 kts | 75° |
| 2026-04-20 00:13 | 30.11692 | 95.07610 | 39174 ft | 527 kts | 75° |
| 2026-04-20 00:14 | 30.13348 | 95.15853 | 39156 ft | 527 kts | 75° |
| 2026-04-20 00:14 | 30.14935 | 95.23837 | 39144 ft | 526 kts | 75° |
| 2026-04-20 00:15 | 30.16558 | 95.32096 | 39172 ft | 529 kts | 75° |
| 2026-04-20 00:15 | 30.18173 | 95.40431 | 39138 ft | 532 kts | 75° |
| 2026-04-20 00:16 | 30.19799 | 95.48653 | 39199 ft | 522 kts | 76° |
| 2026-04-20 00:16 | 30.21312 | 95.56354 | 39205 ft | 525 kts | 75° |
| 2026-04-20 00:17 | 30.22903 | 95.64503 | 39184 ft | 523 kts | 75° |
| 2026-04-20 00:17 | 30.24485 | 95.72673 | 39230 ft | 521 kts | 75° |
| 2026-04-20 00:18 | 30.26066 | 95.80855 | 39216 ft | 520 kts | 75° |
| 2026-04-20 00:18 | 30.27650 | 95.89024 | 39210 ft | 520 kts | 76° |
| 2026-04-20 00:19 | 30.29206 | 95.97173 | 39203 ft | 519 kts | 75° |
| 2026-04-20 00:19 | 30.30781 | 96.05306 | 39196 ft | 518 kts | 75° |
| 2026-04-20 00:20 | 30.32414 | 96.13411 | 39189 ft | 518 kts | 74° |
| 2026-04-20 00:20 | 30.34009 | 96.21589 | 39228 ft | 521 kts | 75° |
| 2026-04-20 00:21 | 30.35571 | 96.29804 | 39224 ft | 525 kts | 76° |
| 2026-04-20 00:21 | 30.37348 | 96.38028 | 39178 ft | 527 kts | 73° |
| 2026-04-20 00:22 | 30.39015 | 96.46187 | 39163 ft | 518 kts | 75° |
| 2026-04-20 00:22 | 30.40587 | 96.54348 | 39153 ft | 520 kts | 76° |
| 2026-04-20 00:23 | 30.42161 | 96.62504 | 39156 ft | 519 kts | 75° |
| 2026-04-20 00:23 | 30.43684 | 96.70242 | 39161 ft | 516 kts | 75° |
| 2026-04-20 00:24 | 30.45276 | 96.78369 | 39123 ft | 517 kts | 75° |
| 2026-04-20 00:24 | 30.46701 | 96.85701 | 39076 ft | 517 kts | 75° |
| 2026-04-20 00:25 | 30.48269 | 96.93800 | 39119 ft | 514 kts | 75° |
| 2026-04-20 00:25 | 30.49834 | 97.01911 | 39158 ft | 517 kts | 75° |
| 2026-04-20 00:26 | 30.51375 | 97.09895 | 39126 ft | 514 kts | 76° |
| 2026-04-20 00:26 | 30.52024 | 97.18073 | 39103 ft | 509 kts | 95° |
| 2026-04-20 00:27 | 30.51324 | 97.26249 | 39109 ft | 509 kts | 97° |
| 2026-04-20 00:27 | 30.50557 | 97.34419 | 39089 ft | 510 kts | 97° |
| 2026-04-20 00:28 | 30.49840 | 97.42617 | 39090 ft | 512 kts | 96° |
| 2026-04-20 00:28 | 30.49149 | 97.50834 | 39089 ft | 512 kts | 96° |
| 2026-04-20 00:29 | 30.48561 | 97.57828 | 39095 ft | 513 kts | 96° |
| 2026-04-20 00:29 | 30.47903 | 97.65614 | 39063 ft | 516 kts | 96° |
| 2026-04-20 00:30 | 30.47217 | 97.73630 | 39065 ft | 515 kts | 96° |
| 2026-04-20 00:30 | 30.46506 | 97.81809 | 39067 ft | 512 kts | 96° |
| 2026-04-20 00:31 | 30.45796 | 97.89954 | 39066 ft | 512 kts | 96° |
| 2026-04-20 00:31 | 30.45076 | 97.98163 | 39060 ft | 511 kts | 96° |
| 2026-04-20 00:32 | 30.44421 | 98.05556 | 39019 ft | 513 kts | 96° |
| 2026-04-20 00:32 | 30.43747 | 98.13181 | 39043 ft | 511 kts | 96° |
| 2026-04-20 00:33 | 30.43141 | 98.19974 | 39066 ft | 509 kts | 96° |
| 2026-04-20 00:33 | 30.42487 | 98.28107 | 39060 ft | 507 kts | 95° |
| 2026-04-20 00:34 | 30.41947 | 98.35265 | 39079 ft | 505 kts | 95° |
| 2026-04-20 00:34 | 30.41344 | 98.43162 | 39075 ft | 505 kts | 95° |
| 2026-04-20 00:35 | 30.40810 | 98.50010 | 39069 ft | 504 kts | 95° |
| 2026-04-20 00:35 | 30.40252 | 98.57058 | 39072 ft | 504 kts | 96° |
| 2026-04-20 00:36 | 30.39608 | 98.65128 | 39064 ft | 504 kts | 96° |
| 2026-04-20 00:36 | 30.38966 | 98.73209 | 39051 ft | 504 kts | 91° |
| 2026-04-20 00:36 | 30.39101 | 98.76805 | 38820 ft | 506 kts | 84° |
| 2026-04-20 00:37 | 30.39214 | 98.79970 | 38863 ft | 505 kts | 92° |
| 2026-04-20 00:37 | 30.38907 | 98.83971 | 38970 ft | 504 kts | 98° |
| 2026-04-20 00:37 | 30.38356 | 98.87987 | 39012 ft | 504 kts | 100° |
| 2026-04-20 00:37 | 30.37764 | 98.91879 | 39125 ft | 508 kts | 101° |
| 2026-04-20 00:38 | 30.37203 | 98.95933 | 38990 ft | 513 kts | 98° |
| 2026-04-20 00:38 | 30.36366 | 99.04119 | 39027 ft | 512 kts | 96° |
| 2026-04-20 00:39 | 30.35749 | 99.11684 | 39081 ft | 510 kts | 95° |
| 2026-04-20 00:39 | 30.35153 | 99.19208 | 39077 ft | 510 kts | 95° |
| 2026-04-20 00:40 | 30.34520 | 99.26835 | 39088 ft | 511 kts | 96° |
| 2026-04-20 00:40 | 30.33847 | 99.34750 | 39021 ft | 510 kts | 95° |
| 2026-04-20 00:41 | 30.33248 | 99.42205 | 39116 ft | 506 kts | 96° |
| 2026-04-20 00:41 | 30.32521 | 99.50330 | 39086 ft | 515 kts | 96° |
| 2026-04-20 00:42 | 30.31801 | 99.58382 | 39098 ft | 516 kts | 96° |
| 2026-04-20 00:42 | 30.31081 | 99.66556 | 39090 ft | 517 kts | 96° |
| 2026-04-20 00:43 | 30.30351 | 99.74839 | 39086 ft | 517 kts | 96° |
| 2026-04-20 00:43 | 30.29615 | 99.83097 | 39072 ft | 515 kts | 96° |
| 2026-04-20 00:44 | 30.28996 | 99.90038 | 39089 ft | 515 kts | 96° |
| 2026-04-20 00:44 | 30.28347 | 99.97332 | 39051 ft | 513 kts | 96° |
| 2026-04-20 00:45 | 30.27700 | 100.04819 | 39060 ft | 509 kts | 95° |
| 2026-04-20 00:45 | 30.27099 | 100.12952 | 39062 ft | 506 kts | 95° |
| 2026-04-20 00:46 | 30.26504 | 100.21092 | 39077 ft | 512 kts | 95° |
| 2026-04-20 00:46 | 30.25883 | 100.29300 | 39067 ft | 511 kts | 95° |
| 2026-04-20 00:47 | 30.25252 | 100.37475 | 39055 ft | 510 kts | 95° |
| 2026-04-20 00:47 | 30.24616 | 100.45635 | 39052 ft | 509 kts | 96° |
| 2026-04-20 00:48 | 30.23978 | 100.53786 | 39066 ft | 509 kts | 95° |
| 2026-04-20 00:48 | 30.23332 | 100.61963 | 39053 ft | 511 kts | 96° |
| 2026-04-20 00:49 | 30.22682 | 100.70125 | 39052 ft | 509 kts | 95° |
| 2026-04-20 00:49 | 30.22034 | 100.78268 | 39036 ft | 508 kts | 96° |
| 2026-04-20 00:50 | 30.21385 | 100.86399 | 39012 ft | 507 kts | 95° |
| 2026-04-20 00:50 | 30.20762 | 100.94516 | 39064 ft | 508 kts | 96° |
| 2026-04-20 00:51 | 30.20098 | 101.02574 | 39064 ft | 506 kts | 96° |
| 2026-04-20 00:51 | 30.19424 | 101.10676 | 39079 ft | 507 kts | 96° |
| 2026-04-20 00:52 | 30.18755 | 101.18784 | 39093 ft | 508 kts | 96° |
| 2026-04-20 00:52 | 30.18082 | 101.26924 | 39074 ft | 509 kts | 96° |
| 2026-04-20 00:53 | 30.17402 | 101.35081 | 39074 ft | 509 kts | 96° |
| 2026-04-20 00:53 | 30.16723 | 101.43201 | 39073 ft | 507 kts | 96° |
| 2026-04-20 00:54 | 30.16034 | 101.51310 | 39104 ft | 507 kts | 96° |
| 2026-04-20 00:54 | 30.15321 | 101.59414 | 39092 ft | 506 kts | 96° |
| 2026-04-20 00:55 | 30.14693 | 101.67500 | 39127 ft | 506 kts | 92° |
| 2026-04-20 00:55 | 30.15340 | 101.75584 | 39154 ft | 506 kts | 75° |
| 2026-04-20 00:56 | 30.17696 | 101.83206 | 39143 ft | 503 kts | 64° |
| 2026-04-20 00:56 | 30.20542 | 101.90598 | 39131 ft | 503 kts | 64° |
| 2026-04-20 00:57 | 30.23361 | 101.98019 | 39138 ft | 504 kts | 64° |
| 2026-04-20 00:57 | 30.26098 | 102.05419 | 39147 ft | 504 kts | 65° |
| 2026-04-20 00:58 | 30.28834 | 102.12886 | 39110 ft | 502 kts | 65° |
| 2026-04-20 00:58 | 30.31542 | 102.20298 | 39146 ft | 500 kts | 65° |
| 2026-04-20 00:59 | 30.34248 | 102.27709 | 39169 ft | 498 kts | 65° |
| 2026-04-20 00:59 | 30.36946 | 102.35110 | 39169 ft | 499 kts | 65° |
| 2026-04-20 01:00 | 30.39650 | 102.42537 | 39173 ft | 502 kts | 65° |
| 2026-04-20 01:00 | 30.42365 | 102.50012 | 38960 ft | 507 kts | 65° |
| 2026-04-20 01:00 | 30.43732 | 102.53787 | 38752 ft | 508 kts | 65° |
| 2026-04-20 01:01 | 30.45093 | 102.57545 | 38237 ft | 506 kts | 66° |
| 2026-04-20 01:01 | 30.46454 | 102.61309 | 37602 ft | 504 kts | 66° |
| 2026-04-20 01:01 | 30.47797 | 102.65042 | 37067 ft | 500 kts | 66° |
| 2026-04-20 01:01 | 30.48682 | 102.67496 | 36812 ft | 498 kts | 66° |
| 2026-04-20 01:02 | 30.50017 | 102.71220 | 36063 ft | 503 kts | 66° |
| 2026-04-20 01:02 | 30.51360 | 102.74978 | 35281 ft | 505 kts | 67° |
| 2026-04-20 01:02 | 30.52709 | 102.78738 | 34477 ft | 505 kts | 67° |
| 2026-04-20 01:02 | 30.54059 | 102.82508 | 33549 ft | 507 kts | 67° |
| 2026-04-20 01:03 | 30.55412 | 102.86292 | 32617 ft | 508 kts | 67° |
| 2026-04-20 01:03 | 30.56758 | 102.90064 | 31933 ft | 503 kts | 67° |
| 2026-04-20 01:03 | 30.58088 | 102.93797 | 31312 ft | 501 kts | 67° |
| 2026-04-20 01:03 | 30.59429 | 102.97560 | 30703 ft | 507 kts | 67° |
| 2026-04-20 01:04 | 30.60779 | 103.01353 | 30036 ft | 511 kts | 67° |
| 2026-04-20 01:04 | 30.62115 | 103.05166 | 29295 ft | 507 kts | 68° |
| 2026-04-20 01:04 | 30.63404 | 103.08947 | 28653 ft | 503 kts | 68° |
| 2026-04-20 01:04 | 30.64693 | 103.12751 | 27963 ft | 508 kts | 68° |
| 2026-04-20 01:05 | 30.65998 | 103.16575 | 27252 ft | 511 kts | 68° |
| 2026-04-20 01:05 | 30.67309 | 103.20408 | 26552 ft | 510 kts | 68° |
| 2026-04-20 01:05 | 30.68331 | 103.24326 | 25825 ft | 511 kts | 81° |
| 2026-04-20 01:05 | 30.68418 | 103.28444 | 25158 ft | 508 kts | 96° |
| 2026-04-20 01:06 | 30.68023 | 103.32504 | 24455 ft | 503 kts | 97° |
| 2026-04-20 01:06 | 30.67591 | 103.36494 | 23723 ft | 494 kts | 97° |
| 2026-04-20 01:06 | 30.67171 | 103.40416 | 22918 ft | 485 kts | 97° |
| 2026-04-20 01:06 | 30.66780 | 103.44275 | 22175 ft | 476 kts | 96° |
| 2026-04-20 01:07 | 30.66417 | 103.48061 | 21492 ft | 468 kts | 96° |
| 2026-04-20 01:07 | 30.66070 | 103.51787 | 20798 ft | 461 kts | 96° |
| 2026-04-20 01:07 | 30.65731 | 103.55461 | 20131 ft | 455 kts | 96° |
| 2026-04-20 01:07 | 30.65395 | 103.59097 | 19462 ft | 451 kts | 96° |
| 2026-04-20 01:08 | 30.65060 | 103.62706 | 18781 ft | 448 kts | 96° |
| 2026-04-20 01:08 | 30.64725 | 103.66282 | 18072 ft | 445 kts | 96° |
| 2026-04-20 01:08 | 30.64391 | 103.69845 | 17308 ft | 442 kts | 96° |
| 2026-04-20 01:08 | 30.64075 | 103.73394 | 16495 ft | 441 kts | 96° |
| 2026-04-20 01:09 | 30.63789 | 103.76908 | 16081 ft | 435 kts | 93° |
| 2026-04-20 01:09 | 30.64124 | 103.80377 | 15926 ft | 435 kts | 73° |
| 2026-04-20 01:09 | 30.65396 | 103.83537 | 15823 ft | 433 kts | 55° |
| 2026-04-20 01:09 | 30.67381 | 103.86154 | 15744 ft | 431 kts | 40° |
| 2026-04-20 01:10 | 30.69864 | 103.88032 | 15726 ft | 426 kts | 23° |
| 2026-04-20 01:10 | 30.75402 | 103.90532 | 15712 ft | 427 kts | 19° |
| 2026-04-20 01:10 | 30.78168 | 103.91773 | 15718 ft | 427 kts | 20° |
| 2026-04-20 01:11 | 30.80941 | 103.93034 | 15715 ft | 428 kts | 17° |
| 2026-04-20 01:11 | 30.83809 | 103.93658 | 15713 ft | 425 kts | 360° |
| 2026-04-20 01:11 | 30.86723 | 103.93230 | 15717 ft | 422 kts | 342° |
| 2026-04-20 01:11 | 30.89361 | 103.91790 | 15703 ft | 419 kts | 324° |
| 2026-04-20 01:12 | 30.91500 | 103.89529 | 15332 ft | 414 kts | 307° |
| 2026-04-20 01:12 | 30.92897 | 103.86646 | 14983 ft | 408 kts | 288° |
| 2026-04-20 01:12 | 30.93428 | 103.83426 | 14639 ft | 405 kts | 270° |
| 2026-04-20 01:12 | 30.93049 | 103.80217 | 14295 ft | 396 kts | 251° |
| 2026-04-20 01:13 | 30.91921 | 103.77384 | 14217 ft | 377 kts | 240° |
| 2026-04-20 01:13 | 30.90597 | 103.74757 | 14198 ft | 376 kts | 238° |
| 2026-04-20 01:13 | 30.89037 | 103.72337 | 14156 ft | 374 kts | 223° |
| 2026-04-20 01:13 | 30.86903 | 103.70619 | 14157 ft | 373 kts | 206° |
| 2026-04-20 01:14 | 30.84484 | 103.69653 | 14113 ft | 362 kts | 192° |
| 2026-04-20 01:14 | 30.82015 | 103.69454 | 14034 ft | 351 kts | 179° |
| 2026-04-20 01:14 | 30.79616 | 103.69629 | 13971 ft | 340 kts | 177° |
| 2026-04-20 01:14 | 30.77303 | 103.69863 | 13891 ft | 329 kts | 176° |
| 2026-04-20 01:15 | 30.75053 | 103.70100 | 13836 ft | 320 kts | 177° |
| 2026-04-20 01:15 | 30.72868 | 103.70322 | 13783 ft | 311 kts | 177° |
| 2026-04-20 01:15 | 30.70739 | 103.70529 | 13710 ft | 304 kts | 177° |
| 2026-04-20 01:15 | 30.68646 | 103.70725 | 13502 ft | 301 kts | 178° |
| 2026-04-20 01:16 | 30.66553 | 103.70916 | 13225 ft | 302 kts | 178° |
| 2026-04-20 01:16 | 30.64453 | 103.71104 | 12843 ft | 304 kts | 177° |
| 2026-04-20 01:16 | 30.62353 | 103.71292 | 12472 ft | 302 kts | 177° |
| 2026-04-20 01:16 | 30.60266 | 103.71477 | 12100 ft | 299 kts | 177° |
| 2026-04-20 01:17 | 30.58205 | 103.71660 | 11732 ft | 295 kts | 177° |
| 2026-04-20 01:17 | 30.56165 | 103.71840 | 11372 ft | 293 kts | 177° |
| 2026-04-20 01:17 | 30.54136 | 103.72019 | 11007 ft | 292 kts | 177° |
| 2026-04-20 01:17 | 30.52117 | 103.72197 | 10654 ft | 290 kts | 176° |
| 2026-04-20 01:18 | 30.50111 | 103.72374 | 10305 ft | 288 kts | 176° |
| 2026-04-20 01:18 | 30.48141 | 103.72548 | 9968 ft | 287 kts | 176° |
| 2026-04-20 01:18 | 30.46123 | 103.72725 | 9581 ft | 287 kts | 176° |
| 2026-04-20 01:18 | 30.44138 | 103.72900 | 9194 ft | 286 kts | 176° |
| 2026-04-20 01:19 | 30.42183 | 103.73072 | 8811 ft | 285 kts | 176° |
| 2026-04-20 01:19 | 30.40182 | 103.73248 | 8433 ft | 284 kts | 176° |
| 2026-04-20 01:19 | 30.38244 | 103.73194 | 8039 ft | 283 kts | 195° |
| 2026-04-20 01:19 | 30.36406 | 103.72411 | 7692 ft | 281 kts | 202° |
| 2026-04-20 01:20 | 30.34597 | 103.71557 | 7331 ft | 280 kts | 202° |
| 2026-04-20 01:20 | 30.32790 | 103.70714 | 6971 ft | 280 kts | 202° |
| 2026-04-20 01:20 | 30.30982 | 103.69880 | 6620 ft | 279 kts | 202° |
| 2026-04-20 01:20 | 30.29166 | 103.69040 | 6387 ft | 281 kts | 202° |
| 2026-04-20 01:21 | 30.27365 | 103.68199 | 6309 ft | 277 kts | 202° |
| 2026-04-20 01:21 | 30.25581 | 103.67365 | 6177 ft | 276 kts | 202° |
| 2026-04-20 01:21 | 30.23802 | 103.66535 | 5970 ft | 277 kts | 202° |
| 2026-04-20 01:21 | 30.22000 | 103.65695 | 5767 ft | 279 kts | 202° |
| 2026-04-20 01:22 | 30.20147 | 103.65114 | 5613 ft | 278 kts | 180° |
| 2026-04-20 01:22 | 30.18297 | 103.65664 | 5271 ft | 277 kts | 147° |
| 2026-04-20 01:22 | 30.17020 | 103.67272 | 4909 ft | 273 kts | 114° |
| 2026-04-20 01:22 | 30.16679 | 103.69393 | 4556 ft | 269 kts | 88° |
| 2026-04-20 01:23 | 30.16925 | 103.71520 | 4188 ft | 267 kts | 76° |
| 2026-04-20 01:23 | 30.17498 | 103.73540 | 3930 ft | 260 kts | 66° |
| 2026-04-20 01:23 | 30.18358 | 103.75307 | 3885 ft | 245 kts | 53° |
| 2026-04-20 01:23 | 30.19452 | 103.76738 | 3873 ft | 231 kts | 43° |
| 2026-04-20 01:24 | 30.20648 | 103.77884 | 3872 ft | 216 kts | 36° |
| 2026-04-20 01:24 | 30.21854 | 103.78832 | 3875 ft | 201 kts | 33° |
| 2026-04-20 01:24 | 30.23016 | 103.79646 | 3895 ft | 193 kts | 31° |
| 2026-04-20 01:24 | 30.24187 | 103.80433 | 3884 ft | 192 kts | 28° |
| 2026-04-20 01:25 | 30.25364 | 103.81125 | 3897 ft | 193 kts | 25° |
| 2026-04-20 01:25 | 30.26609 | 103.81773 | 3900 ft | 194 kts | 23° |
| 2026-04-20 01:25 | 30.27855 | 103.82382 | 3904 ft | 195 kts | 22° |
| 2026-04-20 01:25 | 30.29087 | 103.82968 | 3911 ft | 193 kts | 22° |
| 2026-04-20 01:26 | 30.30323 | 103.83550 | 3911 ft | 191 kts | 22° |
| 2026-04-20 01:26 | 30.31566 | 103.84132 | 3906 ft | 194 kts | 22° |
| 2026-04-20 01:26 | 30.32825 | 103.84721 | 3895 ft | 196 kts | 22° |
| 2026-04-20 01:26 | 30.34090 | 103.85312 | 3897 ft | 197 kts | 22° |
| 2026-04-20 01:27 | 30.35356 | 103.85904 | 3943 ft | 194 kts | 22° |
| 2026-04-20 01:27 | 30.36573 | 103.86479 | 3902 ft | 184 kts | 22° |
| 2026-04-20 01:27 | 30.37753 | 103.87030 | 3885 ft | 180 kts | 22° |
| 2026-04-20 01:27 | 30.38920 | 103.87569 | 3913 ft | 183 kts | 22° |
| 2026-04-20 01:28 | 30.40114 | 103.88130 | 3895 ft | 186 kts | 22° |
| 2026-04-20 01:28 | 30.41313 | 103.88691 | 3882 ft | 186 kts | 22° |
| 2026-04-20 01:28 | 30.42518 | 103.89256 | 3692 ft | 184 kts | 22° |
| 2026-04-20 01:28 | 30.43660 | 103.89789 | 3443 ft | 169 kts | 23° |
| 2026-04-20 01:29 | 30.44713 | 103.90280 | 3237 ft | 156 kts | 24° |
| 2026-04-20 01:29 | 30.45661 | 103.90724 | 3036 ft | 142 kts | 23° |
| 2026-04-20 01:29 | 30.46530 | 103.91133 | 2859 ft | 130 kts | 23° |
| 2026-04-20 01:29 | 30.47363 | 103.91522 | 2712 ft | 130 kts | 22° |
| 2026-04-20 01:30 | 30.48221 | 103.91924 | 2520 ft | 134 kts | 22° |
| 2026-04-20 01:30 | 30.49085 | 103.92327 | 2343 ft | 135 kts | 22° |
| 2026-04-20 01:30 | 30.49969 | 103.92749 | 2106 ft | 138 kts | 22° |
| 2026-04-20 01:30 | 30.50862 | 103.93162 | 1935 ft | 140 kts | 20° |
| 2026-04-20 01:31 | 30.51772 | 103.93580 | 1729 ft | 140 kts | 22° |
| 2026-04-20 01:31 | 30.52654 | 103.93991 | 1646 ft | 128 kts | 24° |
| 2026-04-20 01:31 | 30.53340 | 103.94319 | 1645 ft | 86 kts | 22° |
| 2026-04-20 01:31 | 30.53757 | 103.94512 | 1645 ft | 43 kts | 22° |
| 2026-04-20 01:32 | 30.53950 | 103.94604 | 1645 ft | 26 kts | 21° |
| 2026-04-20 01:32 | 30.54120 | 103.94633 | 1645 ft | 24 kts | 355° |
| 2026-04-20 01:32 | 30.54281 | 103.94612 | 1645 ft | 23 kts | 353° |
| 2026-04-20 01:32 | 30.54407 | 103.94595 | 1645 ft | 10 kts | 0° |
| 2026-04-20 01:33 | 30.54473 | 103.94620 | 1645 ft | 10 kts | 21° |
| 2026-04-20 01:33 | 30.54540 | 103.94652 | 1645 ft | 12 kts | 22° |
| 2026-04-20 01:33 | 30.54631 | 103.94694 | 1645 ft | 16 kts | 22° |
| 2026-04-20 01:33 | 30.54743 | 103.94747 | 1645 ft | 18 kts | 22° |
| 2026-04-20 01:34 | 30.54824 | 103.94761 | 1645 ft | 11 kts | 321° |
| 2026-04-20 01:34 | 30.54861 | 103.94686 | 1645 ft | 11 kts | 296° |
| 2026-04-20 01:34 | 30.54917 | 103.94637 | 1645 ft | 10 kts | 337° |
| 2026-04-20 01:34 | 30.54982 | 103.94605 | 1645 ft | 10 kts | 337° |
| 2026-04-20 01:35 | 30.55045 | 103.94574 | 1645 ft | 10 kts | 336° |
| 2026-04-20 01:35 | 30.55115 | 103.94538 | 1645 ft | 14 kts | 336° |
| 2026-04-20 01:35 | 30.55213 | 103.94489 | 1645 ft | 17 kts | 336° |
| 2026-04-20 01:35 | 30.55328 | 103.94429 | 1645 ft | 18 kts | 335° |
| 2026-04-20 01:36 | 30.55449 | 103.94368 | 1646 ft | 23 kts | 337° |
| 2026-04-20 01:36 | 30.55624 | 103.94280 | 1646 ft | 28 kts | 338° |
| 2026-04-20 01:36 | 30.55806 | 103.94206 | 1645 ft | 26 kts | 355° |
| 2026-04-20 01:36 | 30.55977 | 103.94250 | 1645 ft | 25 kts | 22° |
| 2026-04-20 01:37 | 30.56130 | 103.94322 | 1645 ft | 23 kts | 22° |
| 2026-04-20 01:37 | 30.56273 | 103.94389 | 1645 ft | 22 kts | 22° |
| 2026-04-20 01:37 | 30.56414 | 103.94458 | 1645 ft | 22 kts | 24° |
| 2026-04-20 01:37 | 30.56550 | 103.94520 | 1645 ft | 21 kts | 23° |
| 2026-04-20 01:38 | 30.56667 | 103.94580 | 1645 ft | 17 kts | 25° |
| 2026-04-20 01:38 | 30.56774 | 103.94625 | 1645 ft | 11 kts | 22° |
| 2026-04-20 01:38 | 30.56782 | 103.94629 | 1645 ft | 0 kts | 23° |
| 2026-04-20 01:38 | 30.56790 | 103.94633 | 1645 ft | 7 kts | 22° |
| 2026-04-20 01:39 | 30.56835 | 103.94653 | 1645 ft | 6 kts | 21° |
| 2026-04-20 01:39 | 30.56877 | 103.94657 | 1645 ft | 6 kts | 341° |
| 2026-04-20 01:39 | 30.56905 | 103.94615 | 1645 ft | 10 kts | 283° |
| 2026-04-20 01:39 | 30.56862 | 103.94566 | 1645 ft | 9 kts | 201° |
| 2026-04-20 01:40 | 30.56828 | 103.94550 | 1645 ft | 0 kts | 202° |
| 2026-04-20 01:40 | 30.56837 | 103.94554 | 1645 ft | 8 kts | 214° |
| 2026-04-20 01:40 | 30.56851 | 103.94566 | 1645 ft | 4 kts | 278° |
| 2026-04-20 01:41 | 30.56861 | 103.94546 | 1645 ft | 2 kts | 302° |
| 2026-04-20 01:41 | 30.56845 | 103.94562 | 1645 ft | 1 kts | 358° |
| 2026-04-20 01:41 | 30.56852 | 103.94563 | 1645 ft | 2 kts | 15° |
| 2026-04-20 01:41 | 30.56863 | 103.94567 | 1645 ft | 2 kts | 15° |
| 2026-04-20 01:42 | 30.56871 | 103.94570 | 1645 ft | 0 kts | 20° |
| 2026-04-20 01:47 | 30.56872 | 103.94570 | 1645 ft | 1 kts | 20° |
| 2026-04-20 01:47 | 30.56890 | 103.94578 | 1645 ft | 5 kts | 20° |
| 2026-04-20 01:47 | 30.56943 | 103.94595 | 1645 ft | 10 kts | 13° |
| 2026-04-20 01:48 | 30.57031 | 103.94619 | 1645 ft | 15 kts | 16° |
| 2026-04-20 01:48 | 30.57141 | 103.94671 | 1645 ft | 18 kts | 22° |
| 2026-04-20 01:48 | 30.57219 | 103.94707 | 1645 ft | 18 kts | 21° |
| 2026-04-20 01:48 | 30.57334 | 103.94760 | 1645 ft | 17 kts | 22° |
| 2026-04-20 01:49 | 30.57444 | 103.94813 | 1645 ft | 17 kts | 22° |
| 2026-04-20 01:49 | 30.57551 | 103.94862 | 1645 ft | 16 kts | 22° |
| 2026-04-20 01:49 | 30.57654 | 103.94910 | 1645 ft | 16 kts | 22° |
| 2026-04-20 01:49 | 30.57752 | 103.94957 | 1645 ft | 15 kts | 21° |
| 2026-04-20 01:50 | 30.57838 | 103.94996 | 1645 ft | 10 kts | 23° |
| 2026-04-20 01:50 | 30.57902 | 103.95028 | 1645 ft | 10 kts | 28° |
| 2026-04-20 01:50 | 30.57907 | 103.95101 | 1645 ft | 10 kts | 103° |
| 2026-04-20 01:50 | 30.57897 | 103.95178 | 1645 ft | 10 kts | 110° |
| 2026-04-20 01:51 | 30.57873 | 103.95248 | 1645 ft | 9 kts | 112° |
| 2026-04-20 01:51 | 30.57849 | 103.95316 | 1645 ft | 7 kts | 117° |
| 2026-04-20 01:51 | 30.57831 | 103.95340 | 1645 ft | 4 kts | 125° |
| 2026-04-20 01:51 | 30.57820 | 103.95368 | 1645 ft | 4 kts | 110° |
| 2026-04-20 01:52 | 30.57811 | 103.95395 | 1645 ft | 3 kts | 111° |
| 2026-04-20 01:52 | 30.57810 | 103.95398 | 1645 ft | 0 kts | 111° |